Pont-a-Celles, Belgium
Current Conditions -  °F | °C
As of 8:20 AM on Thursday 23 Oct 2014 (Local Time) from EBCI Reporting Station
Broken Clouds Broken Clouds  
Wind Chill: 42°   Ceiling: 3200
Heat Index: 46°   Visibility: 4mi
Dew Point: 45°   Wind: 8mph
Humidity: 93%   Direction: 200°SSW
Pressure: 30.24"   Gusts: NA
Location:  50.51°N, 4.37°E
Report Text: EBCI 230620Z 20007KT 7000 FEW016 BKN032 08/07 Q1024 NOSIG
Loading
Personal Weather Stations






























Interactive Weather Map
Tropical Storm Tracking
New forecast layout! Learn more

10-Day Weather Forecast

Advertisements
Track Severe Weather on mobile